• Join FlightAware (Why Join?)
  • Login
  • US Flag 
02:47PM EDT


 

Airport Tracker/Info


-or-


 

Live Flight TrackerFlight Track Log ✈ N498QS ✈ 05-May-2013 ✈ KSDL - KTUS

Flight Track Log - Related Links

Times and Time Zones

All times are in EDT time to prevent confusion due to time zone crossing. See the N498QS flight status page for this flight to view local times or setup timezone preferences in your user account.

Time Position Orientation Groundspeed Altitude Reporting Facility
EDT Latitude Longitude Course Direction KTS MPH feet Rate Location/Type
08:35PM 33.6167 -111.9167 270° West 167 192 2,600  Level Phoenix TRACON
08:37PM 33.6167 -111.9833 270° West 169 194 5,000 2,100 Climbing Phoenix TRACON
08:37PM 33.6333 -112.0333 292° West 215 247 6,900 2,220 Climbing Phoenix TRACON
08:38PM 33.6147 -112.0506 218° Southwest 216 249 7,800 2,400 Climbing Albuquerque Center
08:39PM 33.5728 -112.1131 231° Southwest 244 281 10,400 1,740 Climbing Albuquerque Center
08:40PM 33.4858 -112.1058 176° South 329 379 11,400 1,560 Climbing Albuquerque Center
08:41PM 33.3958 -112.0753 164° South 336 387 13,700 1,200 Climbing Albuquerque Center
08:42PM 33.2903 -112.0406 165° South 329 379 13,900 60 Climbing Albuquerque Center
08:43PM 33.2008 -112.0108 164° South 334 384 13,900  Level Albuquerque Center
08:44PM 33.1108 -111.9811 165° South 335 386 13,900  Level Albuquerque Center
08:45PM 33.0197 -111.9511 165° South 338 389 13,900  Level Albuquerque Center
08:46PM 32.9275 -111.9217 165° South 344 396 13,900  Level Albuquerque Center
08:47PM 32.8403 -111.8728 155° Southeast 349 402 13,900  Level Albuquerque Center
08:48PM 32.7608 -111.8031 144° Southeast 354 407 13,900  Level Albuquerque Center
08:49PM 32.6642 -111.7231 145° Southeast 354 407 13,900 -240 Level Albuquerque Center
08:50PM 32.5939 -111.6711 148° Southeast 354 407 13,500 -840 Descending Albuquerque Center
08:51PM 32.5325 -111.6067 138° Southeast 353 406 12,500 -1,200 Descending Albuquerque Center
08:51PM 32.5158 -111.5753 122° Southeast 356 410 12,100 -1,200 Descending Albuquerque Center
08:52PM 32.4747 -111.5158 129° Southeast 345 397 11,300 -1,200 Descending Albuquerque Center
08:52PM 32.4625 -111.4864 116° Southeast 339 390 10,900 -1,200 Descending Albuquerque Center
08:53PM 32.4347 -111.4306 121° Southeast 310 357 10,100 -1,200 Descending Albuquerque Center
08:53PM 32.4242 -111.4031 114° Southeast 298 343 9,700 -1,740 Descending Albuquerque Center
08:54PM 32.3958 -111.3500 122° Southeast 285 328 8,400 -1,980 Descending Albuquerque Center
08:54PM 32.3858 -111.3233 114° Southeast 283 326 7,700 -1,920 Descending Albuquerque Center
08:55PM 32.3569 -111.2697 123° Southeast 281 323 6,500 -1,680 Descending Albuquerque Center
08:55PM 32.3461 -111.2431 116° Southeast 282 325 6,000 -540 Descending Albuquerque Center
08:56PM 32.3183 -111.1917 123° Southeast 277 319 6,000  Level Albuquerque Center
08:56PM 32.3103 -111.1650 110° East 278 320 6,000  Level Albuquerque Center
08:57PM 32.2789 -111.1319 138° Southeast 238 274 6,000 -120 Level Albuquerque Center
08:57PM 32.2589 -111.0958 123° Southeast 257 296 5,900 -600 Descending Albuquerque Center
08:58PM 32.2347 -111.0808 152° Southeast 242 278 5,500 -1,020 Descending Albuquerque Center
08:58PM 32.2108 -111.0450 128° Southeast 245 282 4,900 -1,200 Descending Albuquerque Center
08:59PM 32.1925 -111.0292 144° Southeast 222 255 4,300 -1,020 Descending Albuquerque Center
08:59PM 32.1744 -111.0039 130° Southeast 205 236 3,900 -720 Descending Albuquerque Center
09:00PM 32.1592 -110.9903 143° Southeast 167 192 3,600 -840 Descending Albuquerque Center
09:01PM 32.1264 -110.9539 137° Southeast 152 175 2,700 -900 Descending Albuquerque Center
09:03PM 32.1161 -110.9410 132° Southeast  Level Estimated